Time;durP1;ratioP1;P1;durP2;ratioP2;P2;SDS_P1;SDS_P2;PMS_P1;PMS_P2;Temp;Humidity;BMP_temperature;BMP_pressure;BME280_temperature;BME280_humidity;BME280_pressure;Samples;Min_cycle;Max_cycle;Signal;HPM_P1;HPM_P2
2022/10/13 00:00:45;;;;;;;62.37;5.40;;;;;;;;;;5114972;28;20445;-68
2022/10/13 00:03:12;;;;;;;63.67;5.27;;;;;;;;;;5115529;28;20458;-68
2022/10/13 00:05:41;;;;;;;59.87;4.60;;;;;;;;;;5115599;28;20821;-68
2022/10/13 00:08:08;;;;;;;62.03;4.60;;;;;;;;;;5115803;28;20514;-68
2022/10/13 00:10:37;;;;;;;61.97;5.37;;;;;;;;;;5114851;28;20445;-68
2022/10/13 00:13:06;;;;;;;60.90;5.00;;;;;;;;;;5115654;28;20450;-68
2022/10/13 00:15:33;;;;;;;59.60;4.43;;;;;;;;;;5115370;28;20516;-68
2022/10/13 00:18:00;;;;;;;62.10;5.30;;;;;;;;;;5115271;28;20469;-68
2022/10/13 00:20:28;;;;;;;62.17;5.40;;;;;;;;;;5115494;28;20801;-67
2022/10/13 00:22:55;;;;;;;61.13;6.20;;;;;;;;;;5114857;28;20442;-68
2022/10/13 00:25:22;;;;;;;64.97;5.27;;;;;;;;;;5115349;28;20461;-68
2022/10/13 00:27:49;;;;;;;63.83;5.37;;;;;;;;;;5115125;27;20481;-68
2022/10/13 00:30:18;;;;;;;60.47;5.07;;;;;;;;;;5114750;28;20446;-68
2022/10/13 00:32:45;;;;;;;74.30;7.30;;;;;;;;;;5115033;28;20450;-68
2022/10/13 00:35:12;;;;;;;63.73;5.63;;;;;;;;;;5114649;28;20488;-68
2022/10/13 00:37:39;;;;;;;65.50;6.80;;;;;;;;;;5115019;28;20453;-68
2022/10/13 00:40:07;;;;;;;60.37;4.63;;;;;;;;;;5114763;27;20441;-68
2022/10/13 00:42:34;;;;;;;63.13;7.00;;;;;;;;;;5114999;28;20503;-68
2022/10/13 00:45:05;;;;;;;60.63;4.80;;;;;;;;;;5113839;28;20824;-68
2022/10/13 00:47:36;;;;;;;62.77;5.10;;;;;;;;;;5115039;28;20449;-68
2022/10/13 00:50:04;;;;;;;61.50;4.70;;;;;;;;;;5114770;28;20453;-68
2022/10/13 00:52:32;;;;;;;60.53;6.37;;;;;;;;;;5114853;28;20449;-68
2022/10/13 00:54:59;;;;;;;61.93;5.07;;;;;;;;;;5114675;28;20824;-68
2022/10/13 00:57:27;;;;;;;58.90;3.70;;;;;;;;;;5113819;28;20820;-68
2022/10/13 00:59:54;;;;;;;59.80;4.50;;;;;;;;;;5114231;27;20462;-68
2022/10/13 01:02:22;;;;;;;64.13;5.40;;;;;;;;;;5114726;28;20452;-68
2022/10/13 01:04:50;;;;;;;59.97;4.80;;;;;;;;;;5114516;27;20460;-68
2022/10/13 01:07:19;;;;;;;62.50;6.30;;;;;;;;;;5114259;28;20469;-68
2022/10/13 01:09:46;;;;;;;62.77;6.73;;;;;;;;;;5113702;28;20477;-68
2022/10/13 01:12:18;;;;;;;63.10;5.17;;;;;;;;;;5114307;28;20445;-68
2022/10/13 01:14:50;;;;;;;61.17;4.73;;;;;;;;;;5114672;28;20452;-68
2022/10/13 01:17:24;;;;;;;63.13;6.10;;;;;;;;;;5114758;28;20453;-68
2022/10/13 01:20:04;;;;;;;61.57;4.80;;;;;;;;;;5113367;27;20449;-68
2022/10/13 01:22:40;;;;;;;60.23;5.50;;;;;;;;;;5114242;28;20496;-68
2022/10/13 01:25:13;;;;;;;61.07;5.60;;;;;;;;;;5114529;28;20452;-68
2022/10/13 01:27:53;;;;;;;62.87;6.73;;;;;;;;;;5114129;28;20827;-68
2022/10/13 01:30:23;;;;;;;63.90;5.90;;;;;;;;;;5113556;28;21064;-68
2022/10/13 01:33:08;;;;;;;61.77;4.97;;;;;;;;;;5113568;27;20441;-68
2022/10/13 01:35:42;;;;;;;61.07;5.40;;;;;;;;;;5113577;28;20469;-68
2022/10/13 01:38:12;;;;;;;59.50;5.03;;;;;;;;;;5113860;28;20937;-68
2022/10/13 01:40:41;;;;;;;59.30;4.20;;;;;;;;;;5113711;28;20455;-70
2022/10/13 01:43:11;;;;;;;64.50;4.97;;;;;;;;;;5113871;28;20668;-68
2022/10/13 01:45:42;;;;;;;63.30;5.63;;;;;;;;;;5113898;28;20488;-68
2022/10/13 01:48:11;;;;;;;60.00;5.10;;;;;;;;;;5113764;27;21011;-68
2022/10/13 01:50:38;;;;;;;59.63;4.03;;;;;;;;;;5111491;28;20945;-67
2022/10/13 01:53:06;;;;;;;62.60;6.10;;;;;;;;;;5113290;28;20914;-68
2022/10/13 01:55:33;;;;;;;60.27;4.77;;;;;;;;;;5113312;28;20465;-69
2022/10/13 01:58:00;;;;;;;60.80;4.93;;;;;;;;;;5112970;27;20448;-68
2022/10/13 02:00:28;;;;;;;63.70;4.57;;;;;;;;;;5113154;28;20462;-69
2022/10/13 02:03:02;;;;;;;60.60;4.80;;;;;;;;;;5113423;28;20547;-69
2022/10/13 02:05:34;;;;;;;66.10;6.93;;;;;;;;;;5112691;28;20751;-68
2022/10/13 02:08:03;;;;;;;62.93;5.60;;;;;;;;;;5113364;28;20454;-69
2022/10/13 02:10:34;;;;;;;69.40;5.00;;;;;;;;;;5113041;28;20995;-69
2022/10/13 02:13:03;;;;;;;59.43;4.60;;;;;;;;;;5113387;28;20446;-69
2022/10/13 02:15:33;;;;;;;60.07;4.83;;;;;;;;;;5113174;28;20469;-68
2022/10/13 02:18:02;;;;;;;65.83;5.17;;;;;;;;;;5112509;28;20446;-69
2022/10/13 02:20:29;;;;;;;61.17;4.70;;;;;;;;;;5113095;28;20527;-69
2022/10/13 02:22:59;;;;;;;62.40;5.00;;;;;;;;;;5113164;28;20438;-68
2022/10/13 02:25:26;;;;;;;63.67;4.53;;;;;;;;;;5112964;28;20818;-68
2022/10/13 02:27:54;;;;;;;60.53;5.60;;;;;;;;;;5112378;28;20453;-69
2022/10/13 02:30:22;;;;;;;58.93;3.50;;;;;;;;;;5112152;28;20453;-69
2022/10/13 02:32:49;;;;;;;58.93;3.70;;;;;;;;;;5112842;28;20949;-68
2022/10/13 02:35:17;;;;;;;61.53;4.43;;;;;;;;;;5112675;28;20481;-69
2022/10/13 02:37:45;;;;;;;63.57;5.13;;;;;;;;;;5113167;28;20813;-68
2022/10/13 02:40:12;;;;;;;61.90;5.07;;;;;;;;;;5111803;28;20444;-68
2022/10/13 02:42:39;;;;;;;63.30;4.90;;;;;;;;;;5112551;28;20453;-69
2022/10/13 02:45:07;;;;;;;61.90;4.00;;;;;;;;;;5112753;28;20438;-69
2022/10/13 02:47:34;;;;;;;59.40;4.17;;;;;;;;;;5112804;28;20456;-69
2022/10/13 02:50:02;;;;;;;61.23;4.80;;;;;;;;;;5112101;28;21086;-69
2022/10/13 02:52:30;;;;;;;59.33;4.20;;;;;;;;;;5112287;28;20442;-68
2022/10/13 02:54:57;;;;;;;60.60;4.90;;;;;;;;;;5112490;28;20457;-68
2022/10/13 02:57:24;;;;;;;62.10;5.77;;;;;;;;;;5112384;28;20448;-69
2022/10/13 02:59:51;;;;;;;59.77;4.47;;;;;;;;;;5112291;28;20448;-70
2022/10/13 03:02:19;;;;;;;64.77;5.60;;;;;;;;;;5112312;28;20813;-69
2022/10/13 03:04:46;;;;;;;61.53;5.53;;;;;;;;;;5112009;28;20458;-68
2022/10/13 03:07:13;;;;;;;61.47;4.07;;;;;;;;;;5112313;28;20466;-68
2022/10/13 03:09:42;;;;;;;63.43;6.53;;;;;;;;;;5110862;28;20482;-69
2022/10/13 03:12:09;;;;;;;61.50;6.10;;;;;;;;;;5112470;28;20445;-68
2022/10/13 03:14:36;;;;;;;61.10;4.37;;;;;;;;;;5111773;28;20452;-69
2022/10/13 03:17:03;;;;;;;61.70;4.87;;;;;;;;;;5112285;28;20471;-69
2022/10/13 03:19:31;;;;;;;65.03;5.60;;;;;;;;;;5112200;28;20444;-69
2022/10/13 03:21:58;;;;;;;60.77;4.57;;;;;;;;;;5112254;28;20480;-69
2022/10/13 03:24:25;;;;;;;63.37;5.13;;;;;;;;;;5111963;28;20451;-68
2022/10/13 03:26:53;;;;;;;61.47;5.00;;;;;;;;;;5111432;28;20473;-68
2022/10/13 03:29:21;;;;;;;62.70;5.70;;;;;;;;;;5112099;28;20492;-68
2022/10/13 03:31:48;;;;;;;59.73;4.60;;;;;;;;;;5112187;28;20855;-68
2022/10/13 03:34:16;;;;;;;63.27;5.97;;;;;;;;;;5112005;28;20461;-68
2022/10/13 03:36:43;;;;;;;61.30;4.13;;;;;;;;;;5111673;28;20477;-69
2022/10/13 03:39:10;;;;;;;62.47;4.90;;;;;;;;;;5111304;28;20457;-68
2022/10/13 03:41:37;;;;;;;60.27;5.20;;;;;;;;;;5112110;28;20458;-68
2022/10/13 03:44:07;;;;;;;61.70;4.73;;;;;;;;;;5112139;28;20454;-69
2022/10/13 03:46:34;;;;;;;61.67;5.40;;;;;;;;;;5111987;28;20465;-68
2022/10/13 03:49:01;;;;;;;60.83;4.20;;;;;;;;;;5110828;28;20500;-69
2022/10/13 03:51:28;;;;;;;60.90;5.30;;;;;;;;;;5111753;28;20446;-69
2022/10/13 03:53:55;;;;;;;60.60;4.60;;;;;;;;;;5112068;28;20818;-69
2022/10/13 03:56:23;;;;;;;61.50;4.70;;;;;;;;;;5111924;28;20468;-69
2022/10/13 03:58:53;;;;;;;65.03;6.43;;;;;;;;;;5111595;28;20477;-69
2022/10/13 04:01:22;;;;;;;60.00;4.50;;;;;;;;;;5111070;28;20442;-69
2022/10/13 04:03:49;;;;;;;60.40;4.27;;;;;;;;;;5111729;28;20986;-69
2022/10/13 04:06:16;;;;;;;60.87;4.50;;;;;;;;;;5111922;28;20468;-69
2022/10/13 04:08:43;;;;;;;60.43;5.33;;;;;;;;;;5111455;28;20481;-69
2022/10/13 04:11:12;;;;;;;63.43;5.43;;;;;;;;;;5111562;28;20456;-69
2022/10/13 04:13:39;;;;;;;60.87;5.20;;;;;;;;;;5111325;28;20829;-69
2022/10/13 04:16:08;;;;;;;62.10;4.83;;;;;;;;;;5111615;28;20474;-69
2022/10/13 04:18:36;;;;;;;60.80;4.23;;;;;;;;;;5111258;28;20944;-69
2022/10/13 04:21:07;;;;;;;62.67;5.63;;;;;;;;;;5114501;28;20438;-69
2022/10/13 04:23:34;;;;;;;63.10;6.00;;;;;;;;;;5114732;28;20934;-69
2022/10/13 04:26:01;;;;;;;60.20;4.70;;;;;;;;;;5115291;28;20504;-68
2022/10/13 04:28:28;;;;;;;60.47;5.30;;;;;;;;;;5115095;28;20823;-68
2022/10/13 04:30:56;;;;;;;60.10;4.43;;;;;;;;;;5114959;28;20556;-68
2022/10/13 04:33:23;;;;;;;67.80;6.70;;;;;;;;;;5115184;28;20445;-68
2022/10/13 04:35:51;;;;;;;59.43;4.70;;;;;;;;;;5114681;28;20487;-68
2022/10/13 04:38:18;;;;;;;61.50;5.57;;;;;;;;;;5115109;28;20530;-68
2022/10/13 04:40:45;;;;;;;60.37;4.63;;;;;;;;;;5114803;28;20446;-68
2022/10/13 04:43:14;;;;;;;61.90;4.57;;;;;;;;;;5115069;28;20453;-69
2022/10/13 04:45:41;;;;;;;60.30;4.67;;;;;;;;;;5114510;28;20507;-69
2022/10/13 04:48:08;;;;;;;65.30;5.13;;;;;;;;;;5114664;28;20447;-69
2022/10/13 04:50:35;;;;;;;61.10;4.90;;;;;;;;;;5114753;28;20485;-69
2022/10/13 04:53:04;;;;;;;64.93;6.87;;;;;;;;;;5115065;28;20460;-69
2022/10/13 04:55:31;;;;;;;60.33;4.60;;;;;;;;;;5114977;27;20828;-68
2022/10/13 04:57:58;;;;;;;61.00;5.90;;;;;;;;;;5113953;28;20453;-68
2022/10/13 05:00:25;;;;;;;62.67;5.33;;;;;;;;;;5114562;28;20507;-68
2022/10/13 05:02:52;;;;;;;63.40;4.70;;;;;;;;;;5114805;28;20957;-68
2022/10/13 05:05:19;;;;;;;59.87;4.30;;;;;;;;;;5114611;28;20461;-69
2022/10/13 05:07:46;;;;;;;61.37;5.10;;;;;;;;;;5114659;28;20451;-69
2022/10/13 05:10:15;;;;;;;62.47;5.47;;;;;;;;;;5113434;28;21012;-69
2022/10/13 05:12:42;;;;;;;62.43;4.97;;;;;;;;;;5114355;28;20450;-69
2022/10/13 05:15:10;;;;;;;63.07;5.50;;;;;;;;;;5114418;28;20538;-68
2022/10/13 05:17:37;;;;;;;61.57;6.00;;;;;;;;;;5114458;28;20878;-69
2022/10/13 05:20:04;;;;;;;65.23;6.27;;;;;;;;;;5114046;27;20445;-68
2022/10/13 05:22:31;;;;;;;64.83;6.10;;;;;;;;;;5114386;28;20444;-69
2022/10/13 05:24:58;;;;;;;61.30;4.87;;;;;;;;;;5113584;28;20453;-69
2022/10/13 05:27:27;;;;;;;60.70;5.20;;;;;;;;;;5113764;28;20934;-68
2022/10/13 05:29:54;;;;;;;63.43;6.13;;;;;;;;;;5113814;28;20492;-69
2022/10/13 05:32:21;;;;;;;63.07;4.77;;;;;;;;;;5113162;28;20448;-69
2022/10/13 05:34:48;;;;;;;61.07;5.70;;;;;;;;;;5113765;28;20841;-68
2022/10/13 05:37:17;;;;;;;61.70;4.90;;;;;;;;;;5113098;28;20466;-69
2022/10/13 05:39:44;;;;;;;58.87;3.83;;;;;;;;;;5113448;28;20445;-69
2022/10/13 05:42:11;;;;;;;59.43;4.13;;;;;;;;;;5113839;28;20933;-68
2022/10/13 05:44:39;;;;;;;67.90;5.67;;;;;;;;;;5113971;28;20438;-68
2022/10/13 05:47:06;;;;;;;60.97;4.70;;;;;;;;;;5113867;28;20818;-69
2022/10/13 05:49:35;;;;;;;62.00;5.27;;;;;;;;;;5112503;27;20477;-68
2022/10/13 05:52:04;;;;;;;61.60;4.90;;;;;;;;;;5113631;28;20546;-68
2022/10/13 05:54:34;;;;;;;60.70;4.80;;;;;;;;;;5113520;27;20480;-69
2022/10/13 05:57:03;;;;;;;61.20;4.10;;;;;;;;;;5113651;28;20468;-69
2022/10/13 05:59:31;;;;;;;62.40;4.70;;;;;;;;;;5112768;28;20450;-68
2022/10/13 06:01:59;;;;;;;61.67;5.90;;;;;;;;;;5113333;28;20460;-69
2022/10/13 06:04:30;;;;;;;60.70;4.27;;;;;;;;;;5113465;28;20446;-68
2022/10/13 06:06:57;;;;;;;60.60;5.30;;;;;;;;;;5113261;28;20818;-69
2022/10/13 06:09:25;;;;;;;65.63;5.03;;;;;;;;;;5113147;28;20481;-68
2022/10/13 06:11:52;;;;;;;61.30;5.10;;;;;;;;;;5112562;28;20449;-68
2022/10/13 06:14:19;;;;;;;63.20;5.13;;;;;;;;;;5113182;28;20445;-68
2022/10/13 06:16:46;;;;;;;59.80;4.80;;;;;;;;;;5113190;28;20834;-69
2022/10/13 06:19:14;;;;;;;61.80;6.73;;;;;;;;;;5112846;28;20445;-69
2022/10/13 06:21:41;;;;;;;65.10;5.33;;;;;;;;;;5113114;28;20469;-69
2022/10/13 06:24:09;;;;;;;64.53;5.90;;;;;;;;;;5112743;28;20446;-69
2022/10/13 06:26:36;;;;;;;62.17;6.60;;;;;;;;;;5113063;28;20465;-69
2022/10/13 06:29:03;;;;;;;65.60;5.70;;;;;;;;;;5112760;28;20563;-69
2022/10/13 06:31:31;;;;;;;59.07;4.27;;;;;;;;;;5112879;28;20439;-69
2022/10/13 06:33:59;;;;;;;64.63;5.83;;;;;;;;;;5111942;28;21063;-69
2022/10/13 06:36:27;;;;;;;63.77;5.13;;;;;;;;;;5112956;28;20465;-69
2022/10/13 06:38:54;;;;;;;63.17;5.70;;;;;;;;;;5112619;28;20450;-68
2022/10/13 06:41:21;;;;;;;63.40;6.50;;;;;;;;;;5112799;28;20455;-69
2022/10/13 06:43:49;;;;;;;67.23;5.93;;;;;;;;;;5112781;28;20471;-69
2022/10/13 06:46:16;;;;;;;64.83;6.10;;;;;;;;;;5112636;28;20476;-69
2022/10/13 06:48:43;;;;;;;63.10;5.17;;;;;;;;;;5111902;28;20955;-69
2022/10/13 06:51:11;;;;;;;60.77;4.80;;;;;;;;;;5112164;28;20491;-69
2022/10/13 06:53:40;;;;;;;61.20;5.57;;;;;;;;;;5112729;28;20529;-69
2022/10/13 06:56:08;;;;;;;61.47;5.33;;;;;;;;;;5112540;28;20554;-69
2022/10/13 06:58:35;;;;;;;63.47;7.63;;;;;;;;;;5112173;28;20568;-69
2022/10/13 07:01:03;;;;;;;62.87;4.70;;;;;;;;;;5112094;28;20450;-69
2022/10/13 07:03:30;;;;;;;63.13;5.43;;;;;;;;;;5112070;28;20446;-69
2022/10/13 07:06:00;;;;;;;59.60;4.70;;;;;;;;;;5112298;28;20471;-69
2022/10/13 07:08:27;;;;;;;59.97;4.60;;;;;;;;;;5112229;28;20452;-69
2022/10/13 07:10:56;;;;;;;62.27;5.37;;;;;;;;;;5112158;28;20477;-69
2022/10/13 07:13:23;;;;;;;61.60;4.90;;;;;;;;;;5112519;28;21090;-69
2022/10/13 07:15:50;;;;;;;60.70;4.80;;;;;;;;;;5111358;28;20465;-69
2022/10/13 07:18:18;;;;;;;59.47;4.03;;;;;;;;;;5112155;28;20970;-69
2022/10/13 07:20:45;;;;;;;62.17;5.70;;;;;;;;;;5111922;28;20440;-69
2022/10/13 07:23:12;;;;;;;66.70;5.20;;;;;;;;;;5112277;28;20454;-69
2022/10/13 07:25:39;;;;;;;61.63;6.77;;;;;;;;;;5111842;28;20494;-69
2022/10/13 07:28:07;;;;;;;61.30;5.67;;;;;;;;;;5111707;28;20453;-69
2022/10/13 07:30:34;;;;;;;60.83;5.00;;;;;;;;;;5112031;28;20848;-69
2022/10/13 07:33:01;;;;;;;59.50;4.40;;;;;;;;;;5112233;28;20452;-69
2022/10/13 07:35:29;;;;;;;61.47;5.47;;;;;;;;;;5111911;28;20487;-69
2022/10/13 07:37:56;;;;;;;62.13;6.00;;;;;;;;;;5111519;28;20447;-69
2022/10/13 07:40:23;;;;;;;63.43;5.10;;;;;;;;;;5111898;28;20443;-69
2022/10/13 07:42:50;;;;;;;61.50;5.50;;;;;;;;;;5112004;28;20455;-69
2022/10/13 07:45:19;;;;;;;60.70;4.90;;;;;;;;;;5111878;28;20983;-69
2022/10/13 07:47:46;;;;;;;63.10;6.53;;;;;;;;;;5112222;28;20454;-69
2022/10/13 07:50:13;;;;;;;64.17;5.73;;;;;;;;;;5110993;28;20479;-69
2022/10/13 07:52:40;;;;;;;60.90;5.90;;;;;;;;;;5111939;28;20450;-69
2022/10/13 07:55:08;;;;;;;59.90;5.10;;;;;;;;;;5113249;28;20799;-69
2022/10/13 07:57:35;;;;;;;63.30;5.00;;;;;;;;;;5116077;28;20459;-69
2022/10/13 08:00:04;;;;;;;63.80;5.10;;;;;;;;;;5115323;27;20451;-69
2022/10/13 08:02:33;;;;;;;60.47;5.60;;;;;;;;;;5115867;28;20823;-68
2022/10/13 08:05:00;;;;;;;65.67;6.70;;;;;;;;;;5115871;28;20442;-69
2022/10/13 08:07:27;;;;;;;64.07;5.77;;;;;;;;;;5115694;28;20948;-69
2022/10/13 08:09:55;;;;;;;62.63;6.27;;;;;;;;;;5115718;27;20451;-70
2022/10/13 08:12:22;;;;;;;59.60;4.07;;;;;;;;;;5115135;28;20452;-69
2022/10/13 08:14:50;;;;;;;60.13;4.70;;;;;;;;;;5115743;28;20448;-69
2022/10/13 08:17:18;;;;;;;63.90;5.93;;;;;;;;;;5115686;28;20483;-70
2022/10/13 08:19:46;;;;;;;59.50;3.90;;;;;;;;;;5115191;28;20451;-69
2022/10/13 08:22:14;;;;;;;62.00;6.37;;;;;;;;;;5115226;28;20954;-69
2022/10/13 08:24:41;;;;;;;60.80;5.33;;;;;;;;;;5115627;28;20498;-69
2022/10/13 08:27:10;;;;;;;67.13;4.77;;;;;;;;;;5115364;28;20465;-70
2022/10/13 08:29:37;;;;;;;61.43;5.40;;;;;;;;;;5114974;28;20447;-70
2022/10/13 08:32:04;;;;;;;63.83;6.80;;;;;;;;;;5114671;27;20507;-69
2022/10/13 08:34:32;;;;;;;61.97;5.33;;;;;;;;;;5115231;28;20461;-69
2022/10/13 08:37:01;;;;;;;60.30;4.63;;;;;;;;;;5115012;28;20850;-70
2022/10/13 08:39:28;;;;;;;60.80;5.50;;;;;;;;;;5114842;28;20456;-69
2022/10/13 08:41:56;;;;;;;64.40;6.87;;;;;;;;;;5115073;28;20441;-70
2022/10/13 08:44:26;;;;;;;65.10;5.10;;;;;;;;;;5114775;27;20549;-70
2022/10/13 08:46:58;;;;;;;61.60;4.40;;;;;;;;;;5114923;28;20468;-70
2022/10/13 08:49:25;;;;;;;61.03;4.80;;;;;;;;;;5114487;28;20449;-69
2022/10/13 08:51:52;;;;;;;60.80;4.97;;;;;;;;;;5115165;28;20485;-69
2022/10/13 08:54:22;;;;;;;62.07;5.23;;;;;;;;;;5114137;27;20485;-70
2022/10/13 08:56:50;;;;;;;59.07;4.33;;;;;;;;;;5114709;28;20465;-70
2022/10/13 08:59:18;;;;;;;59.50;3.97;;;;;;;;;;5114390;28;20578;-69
2022/10/13 09:01:47;;;;;;;61.70;5.17;;;;;;;;;;5114660;28;20972;-69
2022/10/13 09:04:25;;;;;;;61.37;4.73;;;;;;;;;;5114528;28;20460;-69
2022/10/13 09:06:53;;;;;;;61.00;4.73;;;;;;;;;;5113811;28;20454;-70
2022/10/13 09:09:22;;;;;;;58.70;3.57;;;;;;;;;;5114300;28;20921;-70
2022/10/13 09:11:50;;;;;;;60.63;4.40;;;;;;;;;;5114444;28;20489;-69
2022/10/13 09:14:21;;;;;;;61.37;4.17;;;;;;;;;;5114344;28;20545;-69
2022/10/13 09:16:49;;;;;;;59.47;4.33;;;;;;;;;;5113871;28;20466;-70
2022/10/13 09:19:24;;;;;;;59.80;4.20;;;;;;;;;;5113808;27;20445;-69
2022/10/13 09:21:52;;;;;;;63.63;4.10;;;;;;;;;;5114267;28;20527;-69
2022/10/13 09:24:20;;;;;;;60.57;4.57;;;;;;;;;;5114276;28;20442;-69
2022/10/13 09:26:49;;;;;;;62.67;4.20;;;;;;;;;;5114167;28;20462;-69
2022/10/13 09:29:19;;;;;;;59.43;4.30;;;;;;;;;;5113034;28;20445;-69
2022/10/13 09:31:46;;;;;;;59.57;3.53;;;;;;;;;;5114198;28;20504;-70
2022/10/13 09:34:14;;;;;;;61.67;4.50;;;;;;;;;;5113941;28;20953;-69
2022/10/13 09:36:55;;;;;;;60.57;3.80;;;;;;;;;;5113826;28;20465;-69
2022/10/13 09:39:22;;;;;;;62.10;5.00;;;;;;;;;;5113329;28;20449;-69
2022/10/13 09:41:51;;;;;;;60.03;4.03;;;;;;;;;;5113692;28;20442;-69
2022/10/13 09:44:20;;;;;;;60.17;4.20;;;;;;;;;;5113984;28;20482;-70
2022/10/13 09:46:52;;;;;;;59.47;4.17;;;;;;;;;;5113856;28;20465;-70
2022/10/13 09:49:28;;;;;;;61.00;4.10;;;;;;;;;;5113457;28;20453;-69
2022/10/13 09:51:59;;;;;;;59.70;3.60;;;;;;;;;;5113077;28;20866;-70
2022/10/13 09:54:28;;;;;;;59.90;3.00;;;;;;;;;;5113634;27;20449;-69
2022/10/13 09:56:59;;;;;;;61.20;4.63;;;;;;;;;;5113682;28;20841;-70
2022/10/13 09:59:32;;;;;;;61.60;5.50;;;;;;;;;;5113349;28;20446;-69
2022/10/13 10:02:01;;;;;;;62.57;4.40;;;;;;;;;;5113505;28;20486;-70
2022/10/13 10:04:31;;;;;;;60.50;4.97;;;;;;;;;;5112916;28;20456;-69
2022/10/13 10:06:58;;;;;;;62.90;4.53;;;;;;;;;;5113514;28;20466;-68
2022/10/13 10:09:36;;;;;;;60.33;3.97;;;;;;;;;;5113214;28;20445;-70
2022/10/13 10:12:06;;;;;;;60.40;4.60;;;;;;;;;;5113368;28;20477;-69
2022/10/13 10:14:34;;;;;;;63.20;4.77;;;;;;;;;;5112689;28;20960;-69
2022/10/13 10:17:05;;;;;;;60.83;3.80;;;;;;;;;;5112704;28;20469;-69
2022/10/13 10:19:41;;;;;;;59.17;3.50;;;;;;;;;;5112595;28;20452;-69
2022/10/13 10:22:11;;;;;;;59.40;3.97;;;;;;;;;;5113122;28;20441;-69
2022/10/13 10:24:44;;;;;;;59.97;3.73;;;;;;;;;;5113112;28;20476;-69
2022/10/13 10:27:16;;;;;;;59.97;4.33;;;;;;;;;;5112233;28;20469;-69
2022/10/13 10:29:47;;;;;;;61.93;4.20;;;;;;;;;;5112919;28;20457;-69
2022/10/13 10:32:21;;;;;;;62.60;6.10;;;;;;;;;;5113065;28;20651;-69
2022/10/13 10:34:51;;;;;;;59.67;3.87;;;;;;;;;;5112987;28;20456;-69
2022/10/13 10:37:20;;;;;;;59.40;4.10;;;;;;;;;;5109933;28;20496;-69
2022/10/13 10:39:48;;;;;;;59.53;3.70;;;;;;;;;;5111176;28;20452;-68
2022/10/13 10:42:35;;;;;;;59.20;4.00;;;;;;;;;;5112424;28;20444;-68
2022/10/13 10:45:05;;;;;;;61.43;4.10;;;;;;;;;;5112084;28;20456;-69
2022/10/13 10:47:36;;;;;;;59.07;3.57;;;;;;;;;;5112027;28;20461;-69
2022/10/13 10:50:09;;;;;;;60.97;4.03;;;;;;;;;;5110801;28;20454;-70
2022/10/13 10:52:41;;;;;;;59.07;3.63;;;;;;;;;;5111052;28;20485;-70
2022/10/13 10:55:15;;;;;;;60.87;4.40;;;;;;;;;;5112205;28;20537;-70
2022/10/13 10:57:52;;;;;;;60.13;4.20;;;;;;;;;;5111240;28;20457;-69
2022/10/13 11:00:20;;;;;;;59.97;3.90;;;;;;;;;;5111400;28;20471;-70
2022/10/13 11:02:50;;;;;;;66.20;4.87;;;;;;;;;;5110775;28;20480;-70
2022/10/13 11:05:17;;;;;;;61.50;4.43;;;;;;;;;;5110762;28;20475;-70
2022/10/13 11:08:00;;;;;;;59.63;4.00;;;;;;;;;;5110422;28;20485;-70
2022/10/13 11:10:27;;;;;;;65.43;4.20;;;;;;;;;;5110907;28;20457;-70
2022/10/13 11:13:21;;;;;;;61.47;4.50;;;;;;;;;;5111090;28;20481;-70
2022/10/13 11:15:50;;;;;;;74.80;4.53;;;;;;;;;;5111663;28;20462;-70
2022/10/13 11:18:36;;;;;;;61.00;5.00;;;;;;;;;;5110664;28;20905;-70
2022/10/13 11:21:03;;;;;;;60.10;4.37;;;;;;;;;;5111022;28;20445;-70
2022/10/13 11:23:34;;;;;;;61.57;4.57;;;;;;;;;;5111443;28;20446;-70
2022/10/13 11:26:27;;;;;;;60.47;4.40;;;;;;;;;;5111794;28;20782;-70
2022/10/13 11:28:54;;;;;;;60.80;4.87;;;;;;;;;;5109476;28;20953;-70
2022/10/13 11:31:28;;;;;;;58.70;3.60;;;;;;;;;;5113964;28;20477;-70
2022/10/13 11:33:56;;;;;;;59.40;3.93;;;;;;;;;;5115485;28;20465;-70
2022/10/13 11:36:35;;;;;;;58.90;3.77;;;;;;;;;;5113629;28;20904;-70
2022/10/13 11:39:09;;;;;;;61.83;4.70;;;;;;;;;;5113870;28;20459;-70
2022/10/13 11:41:42;;;;;;;59.30;3.93;;;;;;;;;;5115208;28;20453;-70
2022/10/13 11:44:15;;;;;;;59.37;3.90;;;;;;;;;;5115445;28;20453;-70
2022/10/13 11:46:55;;;;;;;60.37;4.00;;;;;;;;;;5115029;28;20465;-70
2022/10/13 11:49:35;;;;;;;59.60;4.07;;;;;;;;;;5114917;28;20467;-70
2022/10/13 11:52:12;;;;;;;59.07;3.60;;;;;;;;;;5115507;27;20481;-70
2022/10/13 11:54:41;;;;;;;61.30;4.83;;;;;;;;;;5115790;28;20494;-69
2022/10/13 11:57:18;;;;;;;60.97;3.63;;;;;;;;;;5115856;28;20492;-70
2022/10/13 11:59:46;;;;;;;59.27;3.50;;;;;;;;;;5115552;28;20626;-70
2022/10/13 12:02:16;;;;;;;59.60;3.80;;;;;;;;;;5115228;28;20446;-70
2022/10/13 12:04:44;;;;;;;60.60;4.50;;;;;;;;;;5115729;28;20441;-70
2022/10/13 12:07:13;;;;;;;59.37;3.80;;;;;;;;;;5115244;28;20472;-70
2022/10/13 12:09:49;;;;;;;61.90;3.70;;;;;;;;;;5112006;28;20524;-70
2022/10/13 12:12:17;;;;;;;60.57;3.73;;;;;;;;;;5114171;27;20484;-70
2022/10/13 12:14:46;;;;;;;60.20;3.60;;;;;;;;;;5115194;28;20445;-70
2022/10/13 12:17:22;;;;;;;58.23;3.30;;;;;;;;;;5115363;28;20465;-70
2022/10/13 12:19:49;;;;;;;59.53;3.70;;;;;;;;;;5114851;28;20441;-70
2022/10/13 12:22:16;;;;;;;61.57;3.80;;;;;;;;;;5115236;28;20445;-70
2022/10/13 12:24:43;;;;;;;60.60;3.90;;;;;;;;;;5115113;28;20988;-70
2022/10/13 12:27:11;;;;;;;59.23;3.30;;;;;;;;;;5115183;28;20476;-69
2022/10/13 12:29:40;;;;;;;60.67;4.67;;;;;;;;;;5112935;28;20503;-69
2022/10/13 12:32:18;;;;;;;59.80;4.47;;;;;;;;;;5114234;28;20485;-69
2022/10/13 12:34:47;;;;;;;59.00;3.70;;;;;;;;;;5115145;28;20862;-70
2022/10/13 12:37:19;;;;;;;60.67;4.07;;;;;;;;;;5114917;28;20465;-70
2022/10/13 12:39:46;;;;;;;58.80;3.93;;;;;;;;;;5112435;28;20820;-70
2022/10/13 12:42:15;;;;;;;58.87;3.43;;;;;;;;;;5113557;28;20813;-70
2022/10/13 12:44:42;;;;;;;59.37;3.43;;;;;;;;;;5114798;28;20449;-70
2022/10/13 12:47:31;;;;;;;60.03;3.70;;;;;;;;;;5114875;28;20462;-70
2022/10/13 12:50:13;;;;;;;59.67;3.33;;;;;;;;;;5112881;28;20452;-70
2022/10/13 12:52:41;;;;;;;59.60;3.27;;;;;;;;;;5112940;28;20579;-70
2022/10/13 12:55:14;;;;;;;58.60;3.00;;;;;;;;;;5114541;28;20445;-70
2022/10/13 12:57:41;;;;;;;58.77;3.33;;;;;;;;;;5114731;28;20449;-70
2022/10/13 13:00:21;;;;;;;59.10;3.20;;;;;;;;;;5114109;28;20437;-70
2022/10/13 13:02:51;;;;;;;58.77;3.10;;;;;;;;;;5114596;28;20506;-70
2022/10/13 13:05:31;;;;;;;58.50;3.47;;;;;;;;;;5113924;27;20465;-70
2022/10/13 13:07:59;;;;;;;58.20;3.23;;;;;;;;;;5114355;28;20455;-70
2022/10/13 13:10:26;;;;;;;59.30;3.17;;;;;;;;;;5112970;27;20449;-69
2022/10/13 13:12:55;;;;;;;58.60;3.10;;;;;;;;;;5111429;28;20481;-70
2022/10/13 13:15:32;;;;;;;58.90;3.57;;;;;;;;;;5114167;28;20501;-69
2022/10/13 13:18:14;;;;;;;58.50;3.10;;;;;;;;;;5113430;27;20453;-70
2022/10/13 13:20:41;;;;;;;57.90;2.90;;;;;;;;;;5113736;28;20665;-69
2022/10/13 13:23:10;;;;;;;59.10;3.10;;;;;;;;;;5114053;28;20537;-70
2022/10/13 13:25:37;;;;;;;59.90;3.23;;;;;;;;;;5114090;27;20465;-70
2022/10/13 13:28:05;;;;;;;58.67;3.27;;;;;;;;;;5113805;28;20437;-69
2022/10/13 13:30:32;;;;;;;58.17;2.60;;;;;;;;;;5111794;28;20700;-70
2022/10/13 13:32:59;;;;;;;60.10;3.37;;;;;;;;;;5113407;28;20482;-69
2022/10/13 13:35:26;;;;;;;59.60;4.03;;;;;;;;;;5113590;27;20868;-69
2022/10/13 13:37:53;;;;;;;58.43;3.37;;;;;;;;;;5113845;28;20450;-70
2022/10/13 13:40:22;;;;;;;59.40;2.90;;;;;;;;;;5113267;28;20452;-70
2022/10/13 13:42:50;;;;;;;58.83;3.37;;;;;;;;;;5110745;28;20456;-69
2022/10/13 13:45:17;;;;;;;58.80;3.20;;;;;;;;;;5113009;28;20473;-69
2022/10/13 13:47:45;;;;;;;58.93;3.50;;;;;;;;;;5113581;28;20502;-69
2022/10/13 13:50:15;;;;;;;58.80;3.97;;;;;;;;;;5112788;28;20446;-70
2022/10/13 13:52:43;;;;;;;59.17;3.70;;;;;;;;;;5111800;28;20570;-69
2022/10/13 13:55:10;;;;;;;59.07;3.93;;;;;;;;;;5112947;28;20960;-69
2022/10/13 13:57:38;;;;;;;58.20;3.00;;;;;;;;;;5113265;28;20446;-69
2022/10/13 14:00:06;;;;;;;59.47;3.57;;;;;;;;;;5113357;28;20445;-70
2022/10/13 14:02:33;;;;;;;59.00;3.20;;;;;;;;;;5113548;28;20448;-69
2022/10/13 14:05:00;;;;;;;59.00;3.87;;;;;;;;;;5112502;28;20450;-69
2022/10/13 14:07:27;;;;;;;58.97;3.80;;;;;;;;;;5113434;28;20452;-69
2022/10/13 14:09:54;;;;;;;59.27;3.20;;;;;;;;;;5112348;28;20472;-70
2022/10/13 14:12:21;;;;;;;63.20;3.60;;;;;;;;;;5112580;28;20493;-69
2022/10/13 14:14:50;;;;;;;60.67;3.90;;;;;;;;;;5109879;28;20821;-69
2022/10/13 14:17:17;;;;;;;59.17;3.70;;;;;;;;;;5111995;28;20480;-69
2022/10/13 14:19:44;;;;;;;59.10;3.50;;;;;;;;;;5112342;28;20648;-70
2022/10/13 14:22:11;;;;;;;58.67;3.20;;;;;;;;;;5113194;28;20441;-69
2022/10/13 14:24:38;;;;;;;58.93;3.23;;;;;;;;;;5112933;28;20456;-70
2022/10/13 14:27:07;;;;;;;59.67;3.47;;;;;;;;;;5112284;28;20469;-70
2022/10/13 14:29:34;;;;;;;59.23;3.60;;;;;;;;;;5112247;28;20821;-70
2022/10/13 14:32:03;;;;;;;58.80;3.20;;;;;;;;;;5112410;28;20495;-69
2022/10/13 14:34:32;;;;;;;59.70;3.67;;;;;;;;;;5112322;28;20789;-69
2022/10/13 14:36:59;;;;;;;59.37;3.20;;;;;;;;;;5112010;28;20474;-70
2022/10/13 14:39:26;;;;;;;59.30;3.97;;;;;;;;;;5111118;27;20456;-70
2022/10/13 14:41:54;;;;;;;60.33;4.50;;;;;;;;;;5112440;28;21025;-70